sensor_id;sensor_type;location;lat;lon;timestamp;pressure;altitude;pressure_sealevel;temperature;humidity
22775;BME280;11554;51.106;3.684;2023-04-20T00:00:00;102173.97;;;7.66;64.02
22775;BME280;11554;51.106;3.684;2023-04-20T00:05:00;102171.64;;;7.43;64.96
22775;BME280;11554;51.106;3.684;2023-04-20T00:10:00;102169.1;;;7.22;66.54
22775;BME280;11554;51.106;3.684;2023-04-20T00:15:00;102170.32;;;7.24;66.3
22775;BME280;11554;51.106;3.684;2023-04-20T00:20:00;102161.3;;;7.33;65.07
22775;BME280;11554;51.106;3.684;2023-04-20T00:25:00;102160.88;;;7.33;64.62
22775;BME280;11554;51.106;3.684;2023-04-20T00:30:00;102157.64;;;7.29;64.66
22775;BME280;11554;51.106;3.684;2023-04-20T00:35:00;102155.55;;;7.25;64.83
22775;BME280;11554;51.106;3.684;2023-04-20T00:40:00;102158.73;;;7.13;65.45
22775;BME280;11554;51.106;3.684;2023-04-20T00:45:00;102159.3;;;7.01;66.08
22775;BME280;11554;51.106;3.684;2023-04-20T00:50:00;102153.2;;;6.94;65.89
22775;BME280;11554;51.106;3.684;2023-04-20T00:55:00;102147.96;;;6.82;66.28
22775;BME280;11554;51.106;3.684;2023-04-20T01:00:00;102142.65000000001;;;6.84;65.23
22775;BME280;11554;51.106;3.684;2023-04-20T01:05:00;102136.1;;;6.69;66.12
22775;BME280;11554;51.106;3.684;2023-04-20T01:10:00;102133.42;;;6.43;67.66
22775;BME280;11554;51.106;3.684;2023-04-20T01:15:00;102126.05;;;6.35;67.14
22775;BME280;11554;51.106;3.684;2023-04-20T01:20:00;102121.11;;;6.25;67.46
22775;BME280;11554;51.106;3.684;2023-04-20T01:25:00;102120.0;;;6.16;68.33
22775;BME280;11554;51.106;3.684;2023-04-20T01:30:00;102116.81999999999;;;6.25;67.06
22775;BME280;11554;51.106;3.684;2023-04-20T01:35:00;102115.79000000001;;;6.34;65.05
22775;BME280;11554;51.106;3.684;2023-04-20T01:40:00;102118.42;;;6.48;63.81
22775;BME280;11554;51.106;3.684;2023-04-20T01:45:00;102104.42;;;6.43;63.82
22775;BME280;11554;51.106;3.684;2023-04-20T01:50:00;102105.02;;;6.34;64.4
22775;BME280;11554;51.106;3.684;2023-04-20T01:55:00;102104.72;;;6.16;65.09
22775;BME280;11554;51.106;3.684;2023-04-20T02:00:00;102103.83;;;5.83;67.39
22775;BME280;11554;51.106;3.684;2023-04-20T02:05:00;102107.81;;;5.58;68.79
22775;BME280;11554;51.106;3.684;2023-04-20T02:10:00;102098.13;;;5.41;69.33
22775;BME280;11554;51.106;3.684;2023-04-20T02:15:00;102101.75;;;5.28;69.66
22775;BME280;11554;51.106;3.684;2023-04-20T02:20:00;102094.12;;;5.16;70.08
22775;BME280;11554;51.106;3.684;2023-04-20T02:25:00;102093.39;;;5.02;70.44
22775;BME280;11554;51.106;3.684;2023-04-20T02:30:00;102084.09;;;5.01;70.65
22775;BME280;11554;51.106;3.684;2023-04-20T02:35:00;102087.53;;;4.97;70.32
22775;BME280;11554;51.106;3.684;2023-04-20T02:40:00;102093.26999999999;;;5.08;69.93
22775;BME280;11554;51.106;3.684;2023-04-20T02:45:00;102091.97;;;5.01;70.37
22775;BME280;11554;51.106;3.684;2023-04-20T02:50:00;102093.97;;;4.92;70.7
22775;BME280;11554;51.106;3.684;2023-04-20T02:55:00;102088.54;;;4.87;71.33
22775;BME280;11554;51.106;3.684;2023-04-20T03:00:00;102083.31;;;4.76;71.58
22775;BME280;11554;51.106;3.684;2023-04-20T03:05:00;102073.1;;;4.64;72.32
22775;BME280;11554;51.106;3.684;2023-04-20T03:10:00;102075.09;;;4.64;72.92
22775;BME280;11554;51.106;3.684;2023-04-20T03:15:00;102076.73999999999;;;4.62;73.28
22775;BME280;11554;51.106;3.684;2023-04-20T03:20:00;102075.89;;;4.50;73.81
22775;BME280;11554;51.106;3.684;2023-04-20T03:25:00;102063.62000000001;;;4.44;74.02
22775;BME280;11554;51.106;3.684;2023-04-20T03:30:00;102061.47;;;4.45;74.0
22775;BME280;11554;51.106;3.684;2023-04-20T03:35:00;102057.43;;;4.43;74.29
22775;BME280;11554;51.106;3.684;2023-04-20T03:40:00;102055.28;;;4.38;74.53
22775;BME280;11554;51.106;3.684;2023-04-20T03:45:00;102052.70000000001;;;4.36;74.99
22775;BME280;11554;51.106;3.684;2023-04-20T03:50:00;102046.95;;;4.42;74.89
22775;BME280;11554;51.106;3.684;2023-04-20T03:55:00;102041.45999999999;;;4.53;74.52
22775;BME280;11554;51.106;3.684;2023-04-20T04:00:00;102031.3;;;4.36;74.66
22775;BME280;11554;51.106;3.684;2023-04-20T04:05:00;102027.15;;;4.16;75.2
22775;BME280;11554;51.106;3.684;2023-04-20T04:10:00;102028.27;;;4.14;75.65
22775;BME280;11554;51.106;3.684;2023-04-20T04:15:00;102026.5;;;3.92;76.29
22775;BME280;11554;51.106;3.684;2023-04-20T04:20:00;102023.71;;;3.75;77.13
22775;BME280;11554;51.106;3.684;2023-04-20T04:25:00;102022.77;;;3.68;78.41
22775;BME280;11554;51.106;3.684;2023-04-20T04:30:00;102015.81;;;3.64;79.15
22775;BME280;11554;51.106;3.684;2023-04-20T04:35:00;102007.58;;;3.56;79.61
22775;BME280;11554;51.106;3.684;2023-04-20T04:40:00;101999.2;;;3.51;79.83
22775;BME280;11554;51.106;3.684;2023-04-20T04:45:00;101996.57999999999;;;3.44;80.37
22775;BME280;11554;51.106;3.684;2023-04-20T04:50:00;101994.2;;;3.59;81.93
22775;BME280;11554;51.106;3.684;2023-04-20T04:55:00;101995.14;;;3.72;81.77
22775;BME280;11554;51.106;3.684;2023-04-20T05:00:00;101990.58;;;3.88;82.63
22775;BME280;11554;51.106;3.684;2023-04-20T05:05:00;101993.98;;;4.02;83.16
22775;BME280;11554;51.106;3.684;2023-04-20T05:10:00;101998.86;;;4.29;82.9
22775;BME280;11554;51.106;3.684;2023-04-20T05:15:00;101993.05;;;4.56;83.73
22775;BME280;11554;51.106;3.684;2023-04-20T05:20:00;101988.05;;;4.79;84.05
22775;BME280;11554;51.106;3.684;2023-04-20T05:25:00;101980.2;;;5.07;84.55
22775;BME280;11554;51.106;3.684;2023-04-20T05:30:00;101975.3;;;5.32;84.89
22775;BME280;11554;51.106;3.684;2023-04-20T05:40:00;101966.16;;;5.80;84.62
22775;BME280;11554;51.106;3.684;2023-04-20T05:45:00;101956.22;;;5.97;84.88
22775;BME280;11554;51.106;3.684;2023-04-20T05:50:00;101946.76;;;6.18;84.91
22775;BME280;11554;51.106;3.684;2023-04-20T05:55:00;101941.14;;;6.32;84.85
22775;BME280;11554;51.106;3.684;2023-04-20T06:00:00;101935.94;;;6.42;84.83
22775;BME280;11554;51.106;3.684;2023-04-20T06:05:00;101932.72;;;6.55;85.22
22775;BME280;11554;51.106;3.684;2023-04-20T06:10:00;101927.64;;;6.70;84.88
22775;BME280;11554;51.106;3.684;2023-04-20T06:15:00;101925.5;;;6.90;84.98
22775;BME280;11554;51.106;3.684;2023-04-20T06:20:00;101926.31;;;7.06;85.13
22775;BME280;11554;51.106;3.684;2023-04-20T06:25:00;101923.54000000001;;;7.17;84.83
22775;BME280;11554;51.106;3.684;2023-04-20T06:30:00;101915.73;;;7.31;84.78
22775;BME280;11554;51.106;3.684;2023-04-20T06:35:00;101904.26999999999;;;7.46;84.46
22775;BME280;11554;51.106;3.684;2023-04-20T06:40:00;101898.42;;;7.55;83.89
22775;BME280;11554;51.106;3.684;2023-04-20T06:45:00;101891.52;;;7.63;83.96
22775;BME280;11554;51.106;3.684;2023-04-20T06:50:00;101889.43000000001;;;7.69;83.81
22775;BME280;11554;51.106;3.684;2023-04-20T06:55:00;101887.01999999999;;;7.72;83.78
22775;BME280;11554;51.106;3.684;2023-04-20T07:00:00;101883.11;;;7.79;83.83
22775;BME280;11554;51.106;3.684;2023-04-20T07:05:00;101879.13;;;7.85;84.2
22775;BME280;11554;51.106;3.684;2023-04-20T07:10:00;101877.31;;;7.91;84.31
22775;BME280;11554;51.106;3.684;2023-04-20T07:15:00;101866.71;;;7.97;84.1
22775;BME280;11554;51.106;3.684;2023-04-20T07:20:00;101865.86;;;8.09;84.02
22775;BME280;11554;51.106;3.684;2023-04-20T07:25:00;101854.98999999999;;;8.31;83.95
22775;BME280;11554;51.106;3.684;2023-04-20T07:30:00;101849.44;;;8.40;84.08
22775;BME280;11554;51.106;3.684;2023-04-20T07:35:00;101839.59;;;8.57;84.05
22775;BME280;11554;51.106;3.684;2023-04-20T07:40:00;101834.01;;;8.58;83.94
22775;BME280;11554;51.106;3.684;2023-04-20T07:45:00;101834.99;;;8.55;84.16
22775;BME280;11554;51.106;3.684;2023-04-20T07:50:00;101828.09999999999;;;8.49;82.96
22775;BME280;11554;51.106;3.684;2023-04-20T07:55:00;101837.76000000001;;;8.43;82.36
22775;BME280;11554;51.106;3.684;2023-04-20T08:00:00;101856.51000000001;;;8.31;82.25
22775;BME280;11554;51.106;3.684;2023-04-20T08:05:00;101849.21;;;8.24;82.92
22775;BME280;11554;51.106;3.684;2023-04-20T08:10:00;101850.56;;;8.18;83.84
22775;BME280;11554;51.106;3.684;2023-04-20T08:15:00;101847.13;;;8.21;83.9
22775;BME280;11554;51.106;3.684;2023-04-20T08:20:00;101840.25;;;8.37;84.07
22775;BME280;11554;51.106;3.684;2023-04-20T08:25:00;101824.69;;;8.93;83.4
22775;BME280;11554;51.106;3.684;2023-04-20T08:30:00;101809.03;;;9.59;80.99
22775;BME280;11554;51.106;3.684;2023-04-20T08:35:00;101809.82;;;9.77;80.38
22775;BME280;11554;51.106;3.684;2023-04-20T08:40:00;101806.14;;;9.38;78.92
22775;BME280;11554;51.106;3.684;2023-04-20T08:45:00;101807.05;;;9.82;79.54
22775;BME280;11554;51.106;3.684;2023-04-20T08:50:00;101808.4;;;9.68;79.48
22775;BME280;11554;51.106;3.684;2023-04-20T08:55:00;101810.24;;;9.63;78.98
22775;BME280;11554;51.106;3.684;2023-04-20T09:00:00;101798.6;;;9.40;79.04
22775;BME280;11554;51.106;3.684;2023-04-20T09:05:00;101793.66;;;9.31;79.51
22775;BME280;11554;51.106;3.684;2023-04-20T09:10:00;101791.38;;;9.01;80.17
22775;BME280;11554;51.106;3.684;2023-04-20T09:15:00;101786.97;;;9.09;80.8
22775;BME280;11554;51.106;3.684;2023-04-20T09:20:00;101776.18;;;9.20;80.53
22775;BME280;11554;51.106;3.684;2023-04-20T09:25:00;101774.87999999999;;;9.23;81.26
22775;BME280;11554;51.106;3.684;2023-04-20T09:30:00;101762.19;;;9.31;79.64
22775;BME280;11554;51.106;3.684;2023-04-20T09:35:00;101761.47;;;9.23;78.84
22775;BME280;11554;51.106;3.684;2023-04-20T09:40:00;101761.8;;;9.15;79.71
22775;BME280;11554;51.106;3.684;2023-04-20T09:45:00;101765.34;;;8.82;83.61
22775;BME280;11554;51.106;3.684;2023-04-20T09:50:00;101753.89;;;8.83;85.63
22775;BME280;11554;51.106;3.684;2023-04-20T09:55:00;101757.84;;;8.84;86.52
22775;BME280;11554;51.106;3.684;2023-04-20T10:00:00;101740.20000000001;;;9.03;86.63
22775;BME280;11554;51.106;3.684;2023-04-20T10:05:00;101739.62;;;8.86;87.28
22775;BME280;11554;51.106;3.684;2023-04-20T10:10:02;101739.79000000001;;;8.65;88.32
22775;BME280;11554;51.106;3.684;2023-04-20T10:15:00;101732.42;;;8.79;88.41
22775;BME280;11554;51.106;3.684;2023-04-20T10:20:00;101723.99;;;8.77;89.14
22775;BME280;11554;51.106;3.684;2023-04-20T10:25:00;101721.92;;;8.75;88.33
22775;BME280;11554;51.106;3.684;2023-04-20T10:30:07;101724.98000000001;;;9.18;88.32
22775;BME280;11554;51.106;3.684;2023-04-20T10:35:00;101711.97;;;9.32;87.79
22775;BME280;11554;51.106;3.684;2023-04-20T10:40:00;101707.39;;;9.33;86.43
22775;BME280;11554;51.106;3.684;2023-04-20T10:45:00;101706.98;;;9.77;86.83
22775;BME280;11554;51.106;3.684;2023-04-20T10:50:08;101699.57;;;10.44;86.18
22775;BME280;11554;51.106;3.684;2023-04-20T10:55:00;101690.08;;;10.65;83.86
22775;BME280;11554;51.106;3.684;2023-04-20T11:05:08;101689.53;;;10.26;83.48
22775;BME280;11554;51.106;3.684;2023-04-20T11:10:00;101689.26;;;9.83;85.63
22775;BME280;11554;51.106;3.684;2023-04-20T11:15:00;101675.5;;;9.54;86.12
22775;BME280;11554;51.106;3.684;2023-04-20T11:20:03;101670.43;;;9.69;85.14
22775;BME280;11554;51.106;3.684;2023-04-20T11:25:01;101677.08;;;9.31;86.75
22775;BME280;11554;51.106;3.684;2023-04-20T11:30:00;101669.62;;;9.18;87.15
22775;BME280;11554;51.106;3.684;2023-04-20T11:35:01;101665.53;;;8.99;88.03
22775;BME280;11554;51.106;3.684;2023-04-20T11:40:00;101666.04999999999;;;9.04;88.91
22775;BME280;11554;51.106;3.684;2023-04-20T11:45:00;101665.65000000001;;;8.91;90.5
22775;BME280;11554;51.106;3.684;2023-04-20T11:50:00;101661.6;;;8.82;91.11
22775;BME280;11554;51.106;3.684;2023-04-20T11:55:00;101659.23;;;8.80;90.13
22775;BME280;11554;51.106;3.684;2023-04-20T12:00:00;101653.67;;;9.04;89.94
22775;BME280;11554;51.106;3.684;2023-04-20T12:05:00;101651.70000000001;;;9.39;87.91
22775;BME280;11554;51.106;3.684;2023-04-20T12:10:00;101650.61;;;9.58;86.6
22775;BME280;11554;51.106;3.684;2023-04-20T12:15:00;101648.01999999999;;;9.48;86.74
22775;BME280;11554;51.106;3.684;2023-04-20T12:20:00;101644.34999999999;;;9.41;87.26
22775;BME280;11554;51.106;3.684;2023-04-20T12:25:00;101639.51;;;9.24;87.0
22775;BME280;11554;51.106;3.684;2023-04-20T12:30:00;101642.07;;;9.07;88.03
22775;BME280;11554;51.106;3.684;2023-04-20T12:35:00;101636.31;;;8.89;88.48
22775;BME280;11554;51.106;3.684;2023-04-20T12:40:00;101640.41;;;8.83;89.15
22775;BME280;11554;51.106;3.684;2023-04-20T12:45:00;101642.0;;;8.83;90.24
22775;BME280;11554;51.106;3.684;2023-04-20T12:50:00;101648.15999999999;;;8.92;91.56
22775;BME280;11554;51.106;3.684;2023-04-20T12:55:00;101636.37999999999;;;8.70;92.61
22775;BME280;11554;51.106;3.684;2023-04-20T13:00:00;101631.52;;;8.65;94.07
22775;BME280;11554;51.106;3.684;2023-04-20T13:05:00;101629.44;;;8.43;94.83
22775;BME280;11554;51.106;3.684;2023-04-20T13:10:00;101628.72;;;8.48;97.32
22775;BME280;11554;51.106;3.684;2023-04-20T13:15:00;101621.09;;;8.47;96.76
22775;BME280;11554;51.106;3.684;2023-04-20T13:20:00;101610.76000000001;;;8.68;95.25
22775;BME280;11554;51.106;3.684;2023-04-20T13:25:00;101609.55;;;8.98;93.37
22775;BME280;11554;51.106;3.684;2023-04-20T13:30:00;101610.58;;;9.37;91.7
22775;BME280;11554;51.106;3.684;2023-04-20T13:35:00;101604.08;;;9.91;91.0
22775;BME280;11554;51.106;3.684;2023-04-20T13:40:00;101596.11;;;10.11;87.53
22775;BME280;11554;51.106;3.684;2023-04-20T13:45:00;101594.29000000001;;;10.28;84.6
22775;BME280;11554;51.106;3.684;2023-04-20T13:50:00;101587.56;;;10.80;81.04
22775;BME280;11554;51.106;3.684;2023-04-20T13:55:00;101575.16;;;10.99;78.52
22775;BME280;11554;51.106;3.684;2023-04-20T14:00:00;101559.1;;;11.42;77.52
22775;BME280;11554;51.106;3.684;2023-04-20T14:05:00;101556.48;;;12.16;72.5
22775;BME280;11554;51.106;3.684;2023-04-20T14:10:00;101554.52;;;11.51;72.87
22775;BME280;11554;51.106;3.684;2023-04-20T14:15:00;101564.56;;;10.77;71.66
22775;BME280;11554;51.106;3.684;2023-04-20T14:20:00;101557.54;;;10.20;72.69
22775;BME280;11554;51.106;3.684;2023-04-20T14:25:00;101558.26;;;9.90;74.2
22775;BME280;11554;51.106;3.684;2023-04-20T14:30:00;101560.88;;;10.00;75.47
22775;BME280;11554;51.106;3.684;2023-04-20T14:35:00;101558.15;;;10.32;74.77
22775;BME280;11554;51.106;3.684;2023-04-20T14:40:00;101559.99;;;10.16;75.37
22775;BME280;11554;51.106;3.684;2023-04-20T14:45:00;101564.20000000001;;;9.92;78.16
22775;BME280;11554;51.106;3.684;2023-04-20T14:50:00;101563.17;;;9.55;81.22
22775;BME280;11554;51.106;3.684;2023-04-20T14:55:00;101565.13;;;9.18;83.69
22775;BME280;11554;51.106;3.684;2023-04-20T15:00:00;101558.09000000001;;;8.78;86.53
22775;BME280;11554;51.106;3.684;2023-04-20T15:05:00;101568.08;;;8.58;86.99
22775;BME280;11554;51.106;3.684;2023-04-20T15:10:00;101550.84000000001;;;8.56;88.21
22775;BME280;11554;51.106;3.684;2023-04-20T15:15:00;101547.88;;;8.47;88.43
22775;BME280;11554;51.106;3.684;2023-04-20T15:20:00;101542.29000000001;;;8.61;87.07
22775;BME280;11554;51.106;3.684;2023-04-20T15:25:00;101534.03;;;9.45;86.42
22775;BME280;11554;51.106;3.684;2023-04-20T15:30:00;101528.68999999999;;;10.24;84.28
22775;BME280;11554;51.106;3.684;2023-04-20T15:35:00;101527.72;;;10.63;80.36
22775;BME280;11554;51.106;3.684;2023-04-20T15:40:00;101522.62;;;10.92;79.72
22775;BME280;11554;51.106;3.684;2023-04-20T15:45:00;101529.04999999999;;;11.09;78.76
22775;BME280;11554;51.106;3.684;2023-04-20T15:50:00;101527.29000000001;;;10.74;79.24
22775;BME280;11554;51.106;3.684;2023-04-20T15:55:00;101529.75;;;10.37;80.47
22775;BME280;11554;51.106;3.684;2023-04-20T16:00:00;101542.89;;;9.57;85.66
22775;BME280;11554;51.106;3.684;2023-04-20T16:05:00;101556.82;;;8.70;93.9
22775;BME280;11554;51.106;3.684;2023-04-20T16:10:00;101569.58;;;8.28;97.85
22775;BME280;11554;51.106;3.684;2023-04-20T16:15:00;101537.41;;;7.85;100.0
22775;BME280;11554;51.106;3.684;2023-04-20T16:20:00;101541.78;;;7.88;100.0
22775;BME280;11554;51.106;3.684;2023-04-20T16:25:00;101547.12;;;7.92;100.0
22775;BME280;11554;51.106;3.684;2023-04-20T16:30:00;101545.26;;;8.07;100.0
22775;BME280;11554;51.106;3.684;2023-04-20T16:35:00;101543.66;;;7.94;100.0
22775;BME280;11554;51.106;3.684;2023-04-20T16:40:00;101544.68000000001;;;7.98;100.0
22775;BME280;11554;51.106;3.684;2023-04-20T16:45:00;101542.25;;;8.81;100.0
22775;BME280;11554;51.106;3.684;2023-04-20T16:50:00;101540.15000000001;;;8.84;97.38
22775;BME280;11554;51.106;3.684;2023-04-20T16:55:00;101535.06;;;9.16;97.15
22775;BME280;11554;51.106;3.684;2023-04-20T17:00:00;101535.65999999999;;;9.06;96.93
22775;BME280;11554;51.106;3.684;2023-04-20T17:05:00;101531.59000000001;;;8.72;97.34
22775;BME280;11554;51.106;3.684;2023-04-20T17:10:00;101527.62;;;9.01;98.45
22775;BME280;11554;51.106;3.684;2023-04-20T17:15:00;101533.59;;;9.26;97.95
22775;BME280;11554;51.106;3.684;2023-04-20T17:20:00;101536.69;;;9.39;96.57
22775;BME280;11554;51.106;3.684;2023-04-20T17:25:00;101536.77;;;9.51;96.14
22775;BME280;11554;51.106;3.684;2023-04-20T17:30:00;101536.69;;;9.56;96.79
22775;BME280;11554;51.106;3.684;2023-04-20T17:35:00;101537.44;;;9.40;94.9
22775;BME280;11554;51.106;3.684;2023-04-20T17:40:00;101539.31;;;9.24;93.86
22775;BME280;11554;51.106;3.684;2023-04-20T17:45:00;101542.83;;;9.13;94.62
22775;BME280;11554;51.106;3.684;2023-04-20T17:50:00;101548.24;;;8.82;94.95
22775;BME280;11554;51.106;3.684;2023-04-20T17:55:00;101552.55;;;8.61;95.75
22775;BME280;11554;51.106;3.684;2023-04-20T18:00:00;101543.11;;;8.35;96.69
22775;BME280;11554;51.106;3.684;2023-04-20T18:05:00;101543.98;;;8.19;97.6
22775;BME280;11554;51.106;3.684;2023-04-20T18:10:00;101543.38;;;8.08;98.29
22775;BME280;11554;51.106;3.684;2023-04-20T18:15:00;101539.43000000001;;;7.95;98.75
22775;BME280;11554;51.106;3.684;2023-04-20T18:20:00;101533.56;;;7.84;99.71
22775;BME280;11554;51.106;3.684;2023-04-20T18:25:00;101529.81999999999;;;7.69;100.0
22775;BME280;11554;51.106;3.684;2023-04-20T18:30:00;101529.40999999999;;;7.53;99.96
22775;BME280;11554;51.106;3.684;2023-04-20T18:35:00;101533.22;;;7.35;100.0
22775;BME280;11554;51.106;3.684;2023-04-20T18:40:00;101535.44;;;7.21;100.0
22775;BME280;11554;51.106;3.684;2023-04-20T18:45:00;101537.47;;;7.06;100.0
22775;BME280;11554;51.106;3.684;2023-04-20T18:50:00;101534.02;;;6.94;100.0
22775;BME280;11554;51.106;3.684;2023-04-20T18:55:00;101542.21;;;6.77;100.0
22775;BME280;11554;51.106;3.684;2023-04-20T19:00:00;101543.89;;;6.67;100.0
22775;BME280;11554;51.106;3.684;2023-04-20T19:05:00;101541.88;;;6.48;100.0
22775;BME280;11554;51.106;3.684;2023-04-20T19:10:00;101548.28;;;6.43;100.0
22775;BME280;11554;51.106;3.684;2023-04-20T19:15:00;101549.42;;;6.22;100.0
22775;BME280;11554;51.106;3.684;2023-04-20T19:20:00;101545.04;;;6.05;100.0
22775;BME280;11554;51.106;3.684;2023-04-20T19:25:00;101550.27;;;5.91;100.0
22775;BME280;11554;51.106;3.684;2023-04-20T19:30:00;101547.88;;;5.88;100.0
22775;BME280;11554;51.106;3.684;2023-04-20T19:35:00;101547.86;;;5.91;100.0
22775;BME280;11554;51.106;3.684;2023-04-20T19:40:00;101545.37;;;5.89;100.0
22775;BME280;11554;51.106;3.684;2023-04-20T19:45:00;101541.17;;;5.77;100.0
22775;BME280;11554;51.106;3.684;2023-04-20T19:50:00;101542.38;;;5.72;100.0
22775;BME280;11554;51.106;3.684;2023-04-20T19:55:00;101543.87000000001;;;5.57;100.0
22775;BME280;11554;51.106;3.684;2023-04-20T20:00:00;101535.39;;;5.53;100.0
22775;BME280;11554;51.106;3.684;2023-04-20T20:05:00;101534.69;;;5.47;100.0
22775;BME280;11554;51.106;3.684;2023-04-20T20:10:00;101537.5;;;5.52;100.0
22775;BME280;11554;51.106;3.684;2023-04-20T20:15:00;101526.53;;;5.67;100.0
22775;BME280;11554;51.106;3.684;2023-04-20T20:20:00;101527.45;;;5.81;100.0
22775;BME280;11554;51.106;3.684;2023-04-20T20:25:00;101524.81;;;5.98;100.0
22775;BME280;11554;51.106;3.684;2023-04-20T20:30:00;101522.06;;;6.00;100.0
22775;BME280;11554;51.106;3.684;2023-04-20T20:35:00;101523.56;;;5.98;100.0
22775;BME280;11554;51.106;3.684;2023-04-20T20:40:00;101517.66;;;5.93;100.0
22775;BME280;11554;51.106;3.684;2023-04-20T20:45:00;101509.73;;;5.90;100.0
22775;BME280;11554;51.106;3.684;2023-04-20T20:50:00;101509.39;;;5.89;100.0
22775;BME280;11554;51.106;3.684;2023-04-20T20:55:00;101510.02;;;5.85;100.0
22775;BME280;11554;51.106;3.684;2023-04-20T21:00:00;101504.88;;;5.81;100.0
22775;BME280;11554;51.106;3.684;2023-04-20T21:05:00;101498.67;;;5.74;100.0
22775;BME280;11554;51.106;3.684;2023-04-20T21:10:00;101505.45;;;5.73;100.0
22775;BME280;11554;51.106;3.684;2023-04-20T21:15:00;101496.97;;;5.70;100.0
22775;BME280;11554;51.106;3.684;2023-04-20T21:20:00;101501.17;;;5.68;100.0
22775;BME280;11554;51.106;3.684;2023-04-20T21:25:00;101494.89;;;5.71;100.0
22775;BME280;11554;51.106;3.684;2023-04-20T21:30:00;101493.06;;;5.64;100.0
22775;BME280;11554;51.106;3.684;2023-04-20T21:35:00;101492.11;;;5.64;100.0
22775;BME280;11554;51.106;3.684;2023-04-20T21:40:00;101487.41;;;5.51;100.0
22775;BME280;11554;51.106;3.684;2023-04-20T21:45:00;101486.05;;;5.51;100.0
22775;BME280;11554;51.106;3.684;2023-04-20T21:50:00;101484.97;;;5.44;100.0
22775;BME280;11554;51.106;3.684;2023-04-20T21:55:00;101484.42;;;5.48;100.0
22775;BME280;11554;51.106;3.684;2023-04-20T22:00:00;101492.69;;;5.62;100.0
22775;BME280;11554;51.106;3.684;2023-04-20T22:05:00;101496.81;;;6.02;99.19
22775;BME280;11554;51.106;3.684;2023-04-20T22:10:00;101493.78;;;6.40;96.6
22775;BME280;11554;51.106;3.684;2023-04-20T22:15:00;101500.53;;;6.36;96.14
22775;BME280;11554;51.106;3.684;2023-04-20T22:20:00;101497.53;;;6.45;95.71
22775;BME280;11554;51.106;3.684;2023-04-20T22:25:00;101498.28;;;6.41;95.9
22775;BME280;11554;51.106;3.684;2023-04-20T22:30:00;101503.63;;;6.45;95.8
22775;BME280;11554;51.106;3.684;2023-04-20T22:35:00;101502.84;;;6.47;95.36
22775;BME280;11554;51.106;3.684;2023-04-20T22:40:00;101505.76999999999;;;6.38;96.14
22775;BME280;11554;51.106;3.684;2023-04-20T22:45:00;101501.47;;;6.42;96.27
22775;BME280;11554;51.106;3.684;2023-04-20T22:50:00;101498.8;;;6.56;95.63
22775;BME280;11554;51.106;3.684;2023-04-20T22:55:00;101499.29;;;6.43;96.16
22775;BME280;11554;51.106;3.684;2023-04-20T23:00:00;101497.52;;;6.52;95.5
22775;BME280;11554;51.106;3.684;2023-04-20T23:05:00;101485.41;;;6.42;96.05
22775;BME280;11554;51.106;3.684;2023-04-20T23:10:00;101492.3;;;6.34;96.38
22775;BME280;11554;51.106;3.684;2023-04-20T23:15:00;101493.89;;;6.27;96.99
22775;BME280;11554;51.106;3.684;2023-04-20T23:20:00;101481.0;;;6.20;97.32
22775;BME280;11554;51.106;3.684;2023-04-20T23:25:00;101476.62;;;6.16;97.7
22775;BME280;11554;51.106;3.684;2023-04-20T23:30:00;101469.72;;;5.97;98.1
22775;BME280;11554;51.106;3.684;2023-04-20T23:35:00;101457.97;;;5.91;98.94
22775;BME280;11554;51.106;3.684;2023-04-20T23:40:00;101452.98;;;5.94;99.04
22775;BME280;11554;51.106;3.684;2023-04-20T23:45:00;101451.23;;;5.90;99.49
22775;BME280;11554;51.106;3.684;2023-04-20T23:50:00;101447.66;;;5.80;99.82
22775;BME280;11554;51.106;3.684;2023-04-20T23:55:00;101440.41;;;5.75;100.0
